DAL722 KLAS-KATL
Flight info
| Callsign | DAL722 |
|---|---|
| Flight time | 2h 58m |
| Altitude | 41000 |
| Route | NIITZ4 HOCEE TBC J76 FTI CRUSR IRW FSM MEMFS HUTCC KNSAW RUSSA GLAVN1 |
| Aircraft | A359/H-SDE2E3GHIJ3J4J5LM1ORWXY/LB1D1 |
Departure
| Time | 2026-05-04 00:36 |
|---|---|
| Airport | Harry Reid International Airport (KLAS) |
Arrival
| Time | 2026-05-04 03:34 |
|---|---|
| Airport | Hartsfield Jackson Atlanta International Airport (KATL) |
| Time | Latitude | Longitude | Altitude | Speed | Heading |
|---|---|---|---|---|---|
| 2026-05-04 00:06 | 36.08014 | -115.13927 | 2099 ft | 0 kts | 315° |
| 2026-05-04 00:24 | 36.08000 | -115.13909 | 2100 ft | 4 kts | 315° |
| 2026-05-04 00:25 | 36.07983 | -115.13889 | 2100 ft | 2 kts | 315° |
| 2026-05-04 00:25 | 36.07969 | -115.13866 | 2100 ft | 4 kts | 279° |
| 2026-05-04 00:25 | 36.07974 | -115.13842 | 2102 ft | 3 kts | 225° |
| 2026-05-04 00:25 | 36.07992 | -115.13820 | 2101 ft | 2 kts | 225° |
| 2026-05-04 00:26 | 36.07994 | -115.13818 | 2101 ft | 0 kts | 225° |
| 2026-05-04 00:29 | 36.07993 | -115.13818 | 2099 ft | 1 kts | 225° |
| 2026-05-04 00:29 | 36.07984 | -115.13830 | 2099 ft | 2 kts | 225° |
| 2026-05-04 00:29 | 36.07969 | -115.13850 | 2099 ft | 5 kts | 225° |
| 2026-05-04 00:29 | 36.07931 | -115.13897 | 2099 ft | 11 kts | 225° |
| 2026-05-04 00:30 | 36.07854 | -115.13946 | 2099 ft | 12 kts | 163° |
| 2026-05-04 00:30 | 36.07827 | -115.13860 | 2099 ft | 12 kts | 93° |
| 2026-05-04 00:30 | 36.07827 | -115.13750 | 2099 ft | 14 kts | 89° |
| 2026-05-04 00:30 | 36.07828 | -115.13624 | 2098 ft | 16 kts | 90° |
| 2026-05-04 00:31 | 36.07828 | -115.13469 | 2097 ft | 21 kts | 90° |
| 2026-05-04 00:31 | 36.07828 | -115.13268 | 2094 ft | 26 kts | 90° |
| 2026-05-04 00:31 | 36.07828 | -115.13025 | 2085 ft | 31 kts | 90° |
| 2026-05-04 00:31 | 36.07828 | -115.12740 | 2073 ft | 34 kts | 90° |
| 2026-05-04 00:32 | 36.07829 | -115.12453 | 2063 ft | 30 kts | 90° |
| 2026-05-04 00:32 | 36.07826 | -115.12296 | 2060 ft | 16 kts | 101° |
| 2026-05-04 00:32 | 36.07788 | -115.12208 | 2057 ft | 8 kts | 127° |
| 2026-05-04 00:32 | 36.07764 | -115.12170 | 2056 ft | 4 kts | 128° |
| 2026-05-04 00:33 | 36.07752 | -115.12154 | 2055 ft | 0 kts | 136° |
| 2026-05-04 00:33 | 36.07736 | -115.12140 | 2055 ft | 7 kts | 150° |
| 2026-05-04 00:34 | 36.07680 | -115.12126 | 2055 ft | 9 kts | 179° |
| 2026-05-04 00:34 | 36.07646 | -115.12154 | 2055 ft | 4 kts | 255° |
| 2026-05-04 00:34 | 36.07644 | -115.12187 | 2055 ft | 4 kts | 268° |
| 2026-05-04 00:34 | 36.07642 | -115.12257 | 2057 ft | 23 kts | 269° |
| 2026-05-04 00:35 | 36.07640 | -115.12725 | 2070 ft | 84 kts | 270° |
| 2026-05-04 00:35 | 36.07641 | -115.13674 | 2099 ft | 136 kts | 270° |
| 2026-05-04 00:35 | 36.07649 | -115.15028 | 2185 ft | 175 kts | 269° |
| 2026-05-04 00:35 | 36.07639 | -115.16571 | 2700 ft | 180 kts | 264° |
| 2026-05-04 00:36 | 36.07597 | -115.18108 | 3420 ft | 178 kts | 264° |
| 2026-05-04 00:36 | 36.07590 | -115.19122 | 3873 ft | 180 kts | 264° |
| 2026-05-04 00:36 | 36.07622 | -115.20714 | 4281 ft | 192 kts | 266° |
| 2026-05-04 00:36 | 36.07598 | -115.22396 | 4721 ft | 200 kts | 258° |
| 2026-05-04 00:37 | 36.07118 | -115.24660 | 5217 ft | 212 kts | 238° |
| 2026-05-04 00:37 | 36.06541 | -115.25676 | 5532 ft | 217 kts | 224° |
| 2026-05-04 00:37 | 36.05291 | -115.26809 | 5899 ft | 231 kts | 204° |
| 2026-05-04 00:37 | 36.03729 | -115.27480 | 6323 ft | 245 kts | 196° |
| 2026-05-04 00:38 | 36.02044 | -115.28081 | 6834 ft | 258 kts | 197° |
| 2026-05-04 00:38 | 36.00279 | -115.28600 | 7595 ft | 262 kts | 188° |
| 2026-05-04 00:38 | 35.98479 | -115.28460 | 7866 ft | 266 kts | 166° |
| 2026-05-04 00:38 | 35.96925 | -115.27196 | 8193 ft | 275 kts | 137° |
| 2026-05-04 00:39 | 35.95580 | -115.25459 | 8901 ft | 280 kts | 139° |
| 2026-05-04 00:39 | 35.94244 | -115.23738 | 9977 ft | 276 kts | 137° |
| 2026-05-04 00:39 | 35.92951 | -115.21985 | 10805 ft | 279 kts | 139° |
| 2026-05-04 00:39 | 35.91510 | -115.20276 | 11234 ft | 295 kts | 142° |
| 2026-05-04 00:40 | 35.90153 | -115.18256 | 11662 ft | 318 kts | 125° |
| 2026-05-04 00:40 | 35.89105 | -115.15762 | 12128 ft | 335 kts | 120° |
| 2026-05-04 00:40 | 35.88023 | -115.13170 | 12724 ft | 345 kts | 122° |
| 2026-05-04 00:40 | 35.87035 | -115.10409 | 13161 ft | 364 kts | 109° |
| 2026-05-04 00:41 | 35.86842 | -115.07208 | 13612 ft | 384 kts | 89° |
| 2026-05-04 00:41 | 35.87029 | -115.03885 | 14178 ft | 391 kts | 90° |
| 2026-05-04 00:41 | 35.87194 | -115.00551 | 14668 ft | 399 kts | 90° |
| 2026-05-04 00:41 | 35.87365 | -114.97097 | 15172 ft | 407 kts | 89° |
| 2026-05-04 00:42 | 35.87547 | -114.93594 | 15848 ft | 410 kts | 90° |
| 2026-05-04 00:42 | 35.87734 | -114.90055 | 16467 ft | 415 kts | 89° |
| 2026-05-04 00:42 | 35.87923 | -114.86488 | 17187 ft | 417 kts | 89° |
| 2026-05-04 00:42 | 35.88116 | -114.82888 | 17755 ft | 423 kts | 89° |
| 2026-05-04 00:43 | 35.88300 | -114.79430 | 18362 ft | 425 kts | 89° |
| 2026-05-04 00:43 | 35.88496 | -114.75759 | 18812 ft | 433 kts | 89° |
| 2026-05-04 00:43 | 35.88694 | -114.72015 | 19275 ft | 440 kts | 89° |
| 2026-05-04 00:43 | 35.88897 | -114.68216 | 19727 ft | 446 kts | 89° |
| 2026-05-04 00:44 | 35.89099 | -114.64353 | 20162 ft | 453 kts | 89° |
| 2026-05-04 00:44 | 35.89301 | -114.60446 | 20630 ft | 460 kts | 89° |
| 2026-05-04 00:44 | 35.89505 | -114.56473 | 21075 ft | 467 kts | 89° |
| 2026-05-04 00:44 | 35.89712 | -114.52443 | 21547 ft | 474 kts | 89° |
| 2026-05-04 00:45 | 35.89814 | -114.48357 | 21989 ft | 479 kts | 94° |
| 2026-05-04 00:45 | 35.89759 | -114.44216 | 22427 ft | 486 kts | 95° |
| 2026-05-04 00:45 | 35.89697 | -114.40070 | 22893 ft | 492 kts | 95° |
| 2026-05-04 00:45 | 35.89648 | -114.35817 | 23403 ft | 497 kts | 94° |
| 2026-05-04 00:46 | 35.89609 | -114.31539 | 23904 ft | 500 kts | 94° |
| 2026-05-04 00:46 | 35.89575 | -114.27220 | 24333 ft | 506 kts | 94° |
| 2026-05-04 00:46 | 35.89543 | -114.22862 | 24764 ft | 510 kts | 94° |
| 2026-05-04 00:46 | 35.89510 | -114.18463 | 25159 ft | 515 kts | 94° |
| 2026-05-04 00:47 | 35.89477 | -114.14028 | 25601 ft | 519 kts | 94° |
| 2026-05-04 00:47 | 35.89442 | -114.09551 | 26036 ft | 524 kts | 94° |
| 2026-05-04 00:47 | 35.89405 | -114.05034 | 26448 ft | 529 kts | 94° |
| 2026-05-04 00:47 | 35.89367 | -114.00537 | 26877 ft | 533 kts | 94° |
| 2026-05-04 00:48 | 35.89327 | -113.95954 | 27356 ft | 536 kts | 94° |
| 2026-05-04 00:48 | 35.89285 | -113.91318 | 27727 ft | 542 kts | 94° |
| 2026-05-04 00:48 | 35.89240 | -113.86649 | 28106 ft | 547 kts | 94° |
| 2026-05-04 00:48 | 35.89193 | -113.81926 | 28477 ft | 552 kts | 93° |
| 2026-05-04 00:49 | 35.89144 | -113.77170 | 28826 ft | 556 kts | 93° |
| 2026-05-04 00:49 | 35.89094 | -113.72378 | 29252 ft | 559 kts | 93° |
| 2026-05-04 00:49 | 35.89041 | -113.67626 | 29721 ft | 561 kts | 93° |
| 2026-05-04 00:49 | 35.88988 | -113.62785 | 29900 ft | 566 kts | 93° |
| 2026-05-04 00:50 | 35.88941 | -113.57900 | 30165 ft | 572 kts | 93° |
| 2026-05-04 00:50 | 35.89060 | -113.52985 | 30583 ft | 573 kts | 85° |
| 2026-05-04 00:50 | 35.89662 | -113.48119 | 30967 ft | 575 kts | 80° |
| 2026-05-04 00:50 | 35.90410 | -113.43260 | 31212 ft | 579 kts | 79° |
| 2026-05-04 00:51 | 35.91180 | -113.38357 | 31525 ft | 582 kts | 79° |
| 2026-05-04 00:51 | 35.91947 | -113.33440 | 31895 ft | 582 kts | 79° |
| 2026-05-04 00:51 | 35.92698 | -113.28586 | 32345 ft | 581 kts | 79° |
| 2026-05-04 00:51 | 35.93455 | -113.23683 | 32702 ft | 582 kts | 79° |
| 2026-05-04 00:52 | 35.94207 | -113.18778 | 33113 ft | 581 kts | 79° |
| 2026-05-04 00:52 | 35.94950 | -113.13894 | 33499 ft | 581 kts | 79° |
| 2026-05-04 00:52 | 35.95695 | -113.08988 | 33894 ft | 580 kts | 79° |
| 2026-05-04 00:52 | 35.96435 | -113.04098 | 34225 ft | 579 kts | 79° |
| 2026-05-04 00:53 | 35.97174 | -112.99208 | 34526 ft | 579 kts | 79° |
| 2026-05-04 00:53 | 35.97909 | -112.94329 | 34830 ft | 578 kts | 79° |
| 2026-05-04 00:53 | 35.98642 | -112.89444 | 35107 ft | 578 kts | 79° |
| 2026-05-04 00:53 | 35.99366 | -112.84614 | 35377 ft | 578 kts | 79° |
| 2026-05-04 00:54 | 36.00095 | -112.79727 | 35651 ft | 578 kts | 79° |
| 2026-05-04 00:54 | 36.00823 | -112.74834 | 35924 ft | 578 kts | 79° |
| 2026-05-04 00:54 | 36.01550 | -112.69936 | 36164 ft | 579 kts | 79° |
| 2026-05-04 00:54 | 36.02277 | -112.65025 | 36402 ft | 579 kts | 79° |
| 2026-05-04 00:55 | 36.02991 | -112.60190 | 36652 ft | 579 kts | 79° |
| 2026-05-04 00:55 | 36.03712 | -112.55285 | 36821 ft | 581 kts | 79° |
| 2026-05-04 00:55 | 36.04428 | -112.50379 | 37172 ft | 579 kts | 79° |
| 2026-05-04 00:55 | 36.05146 | -112.45474 | 37551 ft | 578 kts | 79° |
| 2026-05-04 00:56 | 36.05860 | -112.40588 | 37795 ft | 578 kts | 79° |
| 2026-05-04 00:56 | 36.06573 | -112.35690 | 38038 ft | 578 kts | 79° |
| 2026-05-04 00:56 | 36.07282 | -112.30806 | 38300 ft | 578 kts | 79° |
| 2026-05-04 00:56 | 36.07990 | -112.25919 | 38455 ft | 578 kts | 79° |
| 2026-05-04 00:57 | 36.08688 | -112.21071 | 38581 ft | 580 kts | 79° |
| 2026-05-04 00:57 | 36.09398 | -112.16133 | 38802 ft | 579 kts | 79° |
| 2026-05-04 00:57 | 36.10093 | -112.11274 | 39100 ft | 575 kts | 79° |
| 2026-05-04 00:57 | 36.10793 | -112.06403 | 39258 ft | 574 kts | 79° |
| 2026-05-04 00:58 | 36.11492 | -112.01540 | 39339 ft | 575 kts | 79° |
| 2026-05-04 00:58 | 36.12875 | -111.91773 | 39524 ft | 576 kts | 79° |
| 2026-05-04 00:58 | 36.13559 | -111.86900 | 39716 ft | 574 kts | 79° |
| 2026-05-04 00:59 | 36.14237 | -111.82079 | 39792 ft | 573 kts | 79° |
| 2026-05-04 00:59 | 36.15596 | -111.72350 | 40052 ft | 571 kts | 79° |
| 2026-05-04 00:59 | 36.16271 | -111.67499 | 40219 ft | 570 kts | 79° |
| 2026-05-04 01:00 | 36.16933 | -111.62735 | 40354 ft | 570 kts | 79° |
| 2026-05-04 01:00 | 36.17427 | -111.52930 | 40489 ft | 568 kts | 99° |
| 2026-05-04 01:01 | 36.15800 | -111.43435 | 40663 ft | 564 kts | 108° |
| 2026-05-04 01:01 | 36.14791 | -111.38740 | 40768 ft | 563 kts | 109° |
| 2026-05-04 01:01 | 36.13751 | -111.34069 | 40778 ft | 563 kts | 109° |
| 2026-05-04 01:02 | 36.12117 | -111.24579 | 40785 ft | 567 kts | 98° |
| 2026-05-04 01:02 | 36.11451 | -111.14905 | 40779 ft | 568 kts | 96° |
| 2026-05-04 01:03 | 36.10972 | -111.05136 | 40789 ft | 569 kts | 95° |
| 2026-05-04 01:03 | 36.10503 | -110.95349 | 40794 ft | 570 kts | 95° |
| 2026-05-04 01:04 | 36.10001 | -110.85554 | 40807 ft | 570 kts | 95° |
| 2026-05-04 01:04 | 36.09478 | -110.75773 | 40805 ft | 570 kts | 95° |
| 2026-05-04 01:05 | 36.08943 | -110.65983 | 40814 ft | 569 kts | 96° |
| 2026-05-04 01:05 | 36.08404 | -110.56260 | 40823 ft | 569 kts | 96° |
| 2026-05-04 01:06 | 36.07856 | -110.46491 | 40847 ft | 569 kts | 95° |
| 2026-05-04 01:06 | 36.07299 | -110.36711 | 40832 ft | 571 kts | 96° |
| 2026-05-04 01:07 | 36.06733 | -110.26917 | 40839 ft | 571 kts | 96° |
| 2026-05-04 01:07 | 36.06160 | -110.17113 | 40841 ft | 571 kts | 96° |
| 2026-05-04 01:08 | 36.05581 | -110.07366 | 40842 ft | 572 kts | 96° |
| 2026-05-04 01:08 | 36.04988 | -109.97534 | 40846 ft | 574 kts | 96° |
| 2026-05-04 01:09 | 36.04386 | -109.87673 | 40846 ft | 575 kts | 96° |
| 2026-05-04 01:09 | 36.03777 | -109.77822 | 40850 ft | 574 kts | 96° |
| 2026-05-04 01:10 | 36.03162 | -109.67996 | 40858 ft | 573 kts | 96° |
| 2026-05-04 01:10 | 36.02542 | -109.58224 | 40872 ft | 573 kts | 96° |
| 2026-05-04 01:11 | 36.01910 | -109.48408 | 40894 ft | 573 kts | 96° |
| 2026-05-04 01:11 | 36.01270 | -109.38587 | 40916 ft | 574 kts | 96° |
| 2026-05-04 01:12 | 36.00620 | -109.28747 | 40912 ft | 575 kts | 96° |
| 2026-05-04 01:12 | 35.99962 | -109.18886 | 40940 ft | 576 kts | 96° |
| 2026-05-04 01:13 | 35.99296 | -109.08990 | 40946 ft | 576 kts | 96° |
| 2026-05-04 01:13 | 35.98626 | -108.99186 | 40936 ft | 577 kts | 96° |
| 2026-05-04 01:14 | 35.97940 | -108.89290 | 40932 ft | 577 kts | 96° |
| 2026-05-04 01:14 | 35.97246 | -108.79396 | 40909 ft | 577 kts | 96° |
| 2026-05-04 01:15 | 35.96544 | -108.69545 | 40884 ft | 576 kts | 96° |
| 2026-05-04 01:15 | 35.95836 | -108.59667 | 40885 ft | 577 kts | 96° |
| 2026-05-04 01:16 | 35.95125 | -108.49845 | 40873 ft | 577 kts | 96° |
| 2026-05-04 01:16 | 35.94400 | -108.39964 | 40883 ft | 577 kts | 96° |
| 2026-05-04 01:17 | 35.93671 | -108.30155 | 40885 ft | 577 kts | 96° |
| 2026-05-04 01:17 | 35.92929 | -108.20275 | 40884 ft | 577 kts | 96° |
| 2026-05-04 01:18 | 35.92179 | -108.10401 | 40897 ft | 577 kts | 96° |
| 2026-05-04 01:18 | 35.91422 | -108.00535 | 40900 ft | 577 kts | 96° |
| 2026-05-04 01:19 | 35.90663 | -107.90741 | 40900 ft | 577 kts | 96° |
| 2026-05-04 01:19 | 35.89888 | -107.80871 | 40908 ft | 577 kts | 96° |
| 2026-05-04 01:20 | 35.89106 | -107.71007 | 40908 ft | 577 kts | 96° |
| 2026-05-04 01:20 | 35.88447 | -107.62776 | 40911 ft | 575 kts | 96° |
| 2026-05-04 01:21 | 35.87657 | -107.53006 | 40916 ft | 575 kts | 96° |
| 2026-05-04 01:21 | 35.86855 | -107.43176 | 40921 ft | 575 kts | 96° |
| 2026-05-04 01:22 | 35.86046 | -107.33356 | 40915 ft | 575 kts | 96° |
| 2026-05-04 01:22 | 35.85232 | -107.23610 | 40929 ft | 575 kts | 96° |
| 2026-05-04 01:23 | 35.84406 | -107.13806 | 40929 ft | 575 kts | 96° |
| 2026-05-04 01:23 | 35.83570 | -107.03978 | 40945 ft | 574 kts | 96° |
| 2026-05-04 01:24 | 35.82735 | -106.94258 | 40945 ft | 572 kts | 96° |
| 2026-05-04 01:24 | 35.81888 | -106.84492 | 40945 ft | 572 kts | 96° |
| 2026-05-04 01:25 | 35.81034 | -106.74744 | 40954 ft | 572 kts | 96° |
| 2026-05-04 01:25 | 35.80175 | -106.65022 | 40955 ft | 570 kts | 96° |
| 2026-05-04 01:26 | 35.79309 | -106.55318 | 40950 ft | 569 kts | 96° |
| 2026-05-04 01:26 | 35.78442 | -106.45691 | 40943 ft | 570 kts | 97° |
| 2026-05-04 01:27 | 35.77558 | -106.35989 | 40969 ft | 569 kts | 97° |
| 2026-05-04 01:27 | 35.76674 | -106.26294 | 41007 ft | 568 kts | 97° |
| 2026-05-04 01:28 | 35.75779 | -106.16615 | 41022 ft | 568 kts | 97° |
| 2026-05-04 01:28 | 35.74882 | -106.06995 | 41039 ft | 570 kts | 97° |
| 2026-05-04 01:29 | 35.73968 | -105.97291 | 41028 ft | 570 kts | 97° |
| 2026-05-04 01:29 | 35.73048 | -105.87599 | 40936 ft | 569 kts | 97° |
| 2026-05-04 01:30 | 35.72119 | -105.77906 | 40949 ft | 569 kts | 97° |
| 2026-05-04 01:30 | 35.71184 | -105.68236 | 40946 ft | 569 kts | 97° |
| 2026-05-04 01:31 | 35.70244 | -105.58555 | 40934 ft | 569 kts | 97° |
| 2026-05-04 01:31 | 35.69296 | -105.48960 | 40956 ft | 568 kts | 97° |
| 2026-05-04 01:32 | 35.68339 | -105.39314 | 41004 ft | 568 kts | 97° |
| 2026-05-04 01:32 | 35.67378 | -105.29655 | 41039 ft | 568 kts | 97° |
| 2026-05-04 01:33 | 35.66409 | -105.20011 | 41065 ft | 570 kts | 97° |
| 2026-05-04 01:33 | 35.65699 | -105.10269 | 41063 ft | 571 kts | 92° |
| 2026-05-04 01:34 | 35.65389 | -105.00572 | 41046 ft | 571 kts | 91° |
| 2026-05-04 01:34 | 35.65262 | -104.95689 | 40851 ft | 571 kts | 91° |
| 2026-05-04 01:34 | 35.65139 | -104.90799 | 40842 ft | 571 kts | 91° |
| 2026-05-04 01:35 | 35.64885 | -104.81024 | 40838 ft | 572 kts | 91° |
| 2026-05-04 01:35 | 35.64612 | -104.71232 | 40834 ft | 572 kts | 91° |
| 2026-05-04 01:36 | 35.64325 | -104.61438 | 40823 ft | 575 kts | 91° |
| 2026-05-04 01:36 | 35.64027 | -104.51575 | 40822 ft | 578 kts | 91° |
| 2026-05-04 01:37 | 35.63727 | -104.41727 | 40808 ft | 581 kts | 91° |
| 2026-05-04 01:37 | 35.63411 | -104.31772 | 40803 ft | 582 kts | 91° |
| 2026-05-04 01:38 | 35.63086 | -104.21864 | 40821 ft | 583 kts | 91° |
| 2026-05-04 01:38 | 35.62750 | -104.11829 | 40812 ft | 583 kts | 91° |
| 2026-05-04 01:39 | 35.62411 | -104.01869 | 40815 ft | 583 kts | 91° |
| 2026-05-04 01:39 | 35.62064 | -103.91889 | 40820 ft | 584 kts | 91° |
| 2026-05-04 01:40 | 35.61704 | -103.81915 | 40823 ft | 584 kts | 91° |
| 2026-05-04 01:40 | 35.61339 | -103.72001 | 40830 ft | 584 kts | 91° |
| 2026-05-04 01:41 | 35.60964 | -103.62013 | 40830 ft | 584 kts | 91° |
| 2026-05-04 01:41 | 35.60583 | -103.52053 | 40833 ft | 584 kts | 91° |
| 2026-05-04 01:42 | 35.60195 | -103.42130 | 40841 ft | 584 kts | 91° |
| 2026-05-04 01:42 | 35.59796 | -103.32150 | 40844 ft | 584 kts | 92° |
| 2026-05-04 01:43 | 35.59389 | -103.22178 | 40848 ft | 584 kts | 92° |
| 2026-05-04 01:43 | 35.58973 | -103.12191 | 40886 ft | 585 kts | 91° |
| 2026-05-04 01:44 | 35.58549 | -103.02201 | 40862 ft | 586 kts | 91° |
| 2026-05-04 01:44 | 35.58116 | -102.92180 | 40861 ft | 587 kts | 92° |
| 2026-05-04 01:45 | 35.57673 | -102.82151 | 40870 ft | 587 kts | 92° |
| 2026-05-04 01:45 | 35.56997 | -102.67167 | 40884 ft | 587 kts | 92° |
| 2026-05-04 01:46 | 35.56535 | -102.57160 | 40889 ft | 586 kts | 92° |
| 2026-05-04 01:46 | 35.56062 | -102.47125 | 40881 ft | 586 kts | 92° |
| 2026-05-04 01:47 | 35.55586 | -102.37179 | 40890 ft | 587 kts | 92° |
| 2026-05-04 01:47 | 35.55098 | -102.27162 | 40881 ft | 587 kts | 92° |
| 2026-05-04 01:48 | 35.54603 | -102.17150 | 40887 ft | 587 kts | 92° |
| 2026-05-04 01:48 | 35.54097 | -102.07100 | 40880 ft | 587 kts | 92° |
| 2026-05-04 01:49 | 35.53587 | -101.97144 | 40884 ft | 588 kts | 92° |
| 2026-05-04 01:49 | 35.53062 | -101.87046 | 40881 ft | 588 kts | 92° |
| 2026-05-04 01:50 | 35.52534 | -101.77069 | 40889 ft | 588 kts | 92° |
| 2026-05-04 01:50 | 35.51997 | -101.67059 | 40897 ft | 588 kts | 92° |
| 2026-05-04 01:51 | 35.51450 | -101.57035 | 40893 ft | 587 kts | 92° |
| 2026-05-04 01:51 | 35.50895 | -101.47015 | 40900 ft | 587 kts | 92° |
| 2026-05-04 01:52 | 35.50333 | -101.37002 | 40904 ft | 587 kts | 92° |
| 2026-05-04 01:52 | 35.49765 | -101.27034 | 40904 ft | 587 kts | 92° |
| 2026-05-04 01:53 | 35.49186 | -101.17034 | 40924 ft | 587 kts | 92° |
| 2026-05-04 01:53 | 35.48600 | -101.07054 | 40937 ft | 586 kts | 92° |
| 2026-05-04 01:54 | 35.48005 | -100.97058 | 40939 ft | 587 kts | 92° |
| 2026-05-04 01:54 | 35.47402 | -100.87070 | 40926 ft | 587 kts | 92° |
| 2026-05-04 01:55 | 35.46790 | -100.77069 | 40912 ft | 587 kts | 92° |
| 2026-05-04 01:55 | 35.46174 | -100.67132 | 40894 ft | 587 kts | 92° |
| 2026-05-04 01:56 | 35.45547 | -100.57157 | 40900 ft | 587 kts | 92° |
| 2026-05-04 01:56 | 35.44912 | -100.47189 | 40878 ft | 586 kts | 92° |
| 2026-05-04 01:57 | 35.44269 | -100.37216 | 40884 ft | 586 kts | 92° |
| 2026-05-04 01:57 | 35.43617 | -100.27238 | 40884 ft | 586 kts | 92° |
| 2026-05-04 01:58 | 35.42962 | -100.17343 | 40889 ft | 586 kts | 92° |
| 2026-05-04 01:58 | 35.42294 | -100.07383 | 40892 ft | 585 kts | 92° |
| 2026-05-04 01:59 | 35.41620 | -99.97438 | 40894 ft | 585 kts | 93° |
| 2026-05-04 01:59 | 35.40936 | -99.87483 | 40895 ft | 585 kts | 93° |
| 2026-05-04 02:00 | 35.40245 | -99.77545 | 40905 ft | 585 kts | 93° |
| 2026-05-04 02:00 | 35.39664 | -99.69276 | 40909 ft | 585 kts | 93° |
| 2026-05-04 02:01 | 35.38843 | -99.57724 | 40921 ft | 585 kts | 93° |
| 2026-05-04 02:01 | 35.38249 | -99.49459 | 40924 ft | 585 kts | 93° |
| 2026-05-04 02:02 | 35.37525 | -99.39513 | 40926 ft | 584 kts | 93° |
| 2026-05-04 02:02 | 35.36795 | -99.29581 | 40943 ft | 585 kts | 93° |
| 2026-05-04 02:03 | 35.36056 | -99.19633 | 40943 ft | 585 kts | 93° |
| 2026-05-04 02:03 | 35.35314 | -99.09760 | 40942 ft | 585 kts | 93° |
| 2026-05-04 02:04 | 35.34559 | -98.99832 | 40936 ft | 585 kts | 93° |
| 2026-05-04 02:04 | 35.33798 | -98.89911 | 40926 ft | 585 kts | 93° |
| 2026-05-04 02:05 | 35.33694 | -98.79986 | 40922 ft | 581 kts | 86° |
| 2026-05-04 02:05 | 35.33885 | -98.70093 | 40947 ft | 581 kts | 85° |
| 2026-05-04 02:06 | 35.34122 | -98.60188 | 40940 ft | 581 kts | 85° |
| 2026-05-04 02:06 | 35.34347 | -98.50221 | 40929 ft | 581 kts | 85° |
| 2026-05-04 02:07 | 35.34550 | -98.40374 | 40927 ft | 581 kts | 85° |
| 2026-05-04 02:07 | 35.34741 | -98.30456 | 40952 ft | 581 kts | 85° |
| 2026-05-04 02:08 | 35.34924 | -98.20572 | 40948 ft | 581 kts | 85° |
| 2026-05-04 02:08 | 35.35100 | -98.10669 | 40966 ft | 581 kts | 85° |
| 2026-05-04 02:09 | 35.35267 | -98.00767 | 40957 ft | 581 kts | 85° |
| 2026-05-04 02:09 | 35.35427 | -97.90857 | 40960 ft | 581 kts | 85° |
| 2026-05-04 02:10 | 35.35579 | -97.80958 | 40951 ft | 580 kts | 85° |
| 2026-05-04 02:10 | 35.35722 | -97.71097 | 40969 ft | 580 kts | 85° |
| 2026-05-04 02:11 | 35.35858 | -97.61204 | 40969 ft | 580 kts | 85° |
| 2026-05-04 02:11 | 35.36038 | -97.51386 | 40972 ft | 579 kts | 84° |
| 2026-05-04 02:12 | 35.36268 | -97.41533 | 40961 ft | 578 kts | 84° |
| 2026-05-04 02:12 | 35.36488 | -97.31680 | 40961 ft | 578 kts | 84° |
| 2026-05-04 02:13 | 35.36687 | -97.21879 | 40963 ft | 578 kts | 85° |
| 2026-05-04 02:13 | 35.36874 | -97.12016 | 40978 ft | 578 kts | 85° |
| 2026-05-04 02:14 | 35.37053 | -97.02170 | 40980 ft | 578 kts | 85° |
| 2026-05-04 02:14 | 35.37224 | -96.92311 | 40981 ft | 578 kts | 85° |
| 2026-05-04 02:15 | 35.37388 | -96.82497 | 40998 ft | 578 kts | 85° |
| 2026-05-04 02:15 | 35.37542 | -96.72668 | 40980 ft | 575 kts | 85° |
| 2026-05-04 02:16 | 35.37689 | -96.62875 | 40980 ft | 575 kts | 85° |
| 2026-05-04 02:16 | 35.37828 | -96.53083 | 40978 ft | 574 kts | 85° |
| 2026-05-04 02:17 | 35.37960 | -96.43265 | 40993 ft | 574 kts | 85° |
| 2026-05-04 02:17 | 35.38082 | -96.33552 | 40990 ft | 572 kts | 85° |
| 2026-05-04 02:18 | 35.38197 | -96.23802 | 40989 ft | 572 kts | 85° |
| 2026-05-04 02:18 | 35.38304 | -96.14039 | 40986 ft | 572 kts | 85° |
| 2026-05-04 02:19 | 35.38404 | -96.04281 | 40983 ft | 572 kts | 85° |
| 2026-05-04 02:19 | 35.38495 | -95.94536 | 40983 ft | 571 kts | 85° |
| 2026-05-04 02:20 | 35.38579 | -95.84814 | 40985 ft | 570 kts | 85° |
| 2026-05-04 02:20 | 35.38653 | -95.75098 | 40989 ft | 570 kts | 85° |
| 2026-05-04 02:21 | 35.38721 | -95.65379 | 40999 ft | 569 kts | 86° |
| 2026-05-04 02:21 | 35.38781 | -95.55726 | 40993 ft | 568 kts | 86° |
| 2026-05-04 02:22 | 35.38834 | -95.46043 | 40996 ft | 568 kts | 86° |
| 2026-05-04 02:22 | 35.38878 | -95.36359 | 40991 ft | 568 kts | 86° |
| 2026-05-04 02:23 | 35.38915 | -95.26684 | 40993 ft | 567 kts | 86° |
| 2026-05-04 02:23 | 35.38943 | -95.17020 | 40979 ft | 567 kts | 86° |
| 2026-05-04 02:24 | 35.38965 | -95.07344 | 40989 ft | 568 kts | 86° |
| 2026-05-04 02:24 | 35.38979 | -94.97638 | 40989 ft | 568 kts | 86° |
| 2026-05-04 02:25 | 35.38984 | -94.87963 | 40992 ft | 567 kts | 86° |
| 2026-05-04 02:25 | 35.38981 | -94.78305 | 40986 ft | 566 kts | 86° |
| 2026-05-04 02:26 | 35.38972 | -94.68694 | 40996 ft | 566 kts | 86° |
| 2026-05-04 02:26 | 35.38955 | -94.59047 | 40995 ft | 566 kts | 86° |
| 2026-05-04 02:27 | 35.38930 | -94.49395 | 40998 ft | 565 kts | 86° |
| 2026-05-04 02:27 | 35.38896 | -94.39762 | 40999 ft | 564 kts | 86° |
| 2026-05-04 02:28 | 35.38856 | -94.30137 | 41000 ft | 564 kts | 86° |
| 2026-05-04 02:28 | 35.38641 | -94.20503 | 40996 ft | 566 kts | 91° |
| 2026-05-04 02:29 | 35.37885 | -94.10897 | 40996 ft | 566 kts | 93° |
| 2026-05-04 02:29 | 35.37071 | -94.01316 | 40995 ft | 565 kts | 93° |
| 2026-05-04 02:30 | 35.36340 | -93.91806 | 40991 ft | 564 kts | 92° |
| 2026-05-04 02:30 | 35.35644 | -93.82214 | 40991 ft | 564 kts | 92° |
| 2026-05-04 02:31 | 35.34949 | -93.72613 | 40984 ft | 564 kts | 92° |
| 2026-05-04 02:31 | 35.34243 | -93.63038 | 40985 ft | 564 kts | 92° |
| 2026-05-04 02:32 | 35.33531 | -93.53537 | 40985 ft | 564 kts | 92° |
| 2026-05-04 02:32 | 35.32807 | -93.43968 | 40990 ft | 564 kts | 92° |
| 2026-05-04 02:33 | 35.32077 | -93.34398 | 40999 ft | 564 kts | 92° |
| 2026-05-04 02:33 | 35.31340 | -93.24831 | 41005 ft | 564 kts | 92° |
| 2026-05-04 02:34 | 35.30597 | -93.15291 | 41008 ft | 564 kts | 92° |
| 2026-05-04 02:34 | 35.29844 | -93.05731 | 41006 ft | 564 kts | 93° |
| 2026-05-04 02:35 | 35.29087 | -92.96225 | 41005 ft | 563 kts | 93° |
| 2026-05-04 02:35 | 35.28314 | -92.86621 | 41002 ft | 563 kts | 93° |
| 2026-05-04 02:36 | 35.27544 | -92.77136 | 40991 ft | 563 kts | 93° |
| 2026-05-04 02:36 | 35.26762 | -92.67600 | 40996 ft | 563 kts | 93° |
| 2026-05-04 02:37 | 35.25972 | -92.58065 | 41002 ft | 562 kts | 93° |
| 2026-05-04 02:37 | 35.25175 | -92.48545 | 41003 ft | 562 kts | 93° |
| 2026-05-04 02:38 | 35.24506 | -92.40614 | 41005 ft | 562 kts | 94° |
| 2026-05-04 02:38 | 35.23696 | -92.31090 | 41007 ft | 563 kts | 94° |
| 2026-05-04 02:39 | 35.22745 | -92.20011 | 40980 ft | 562 kts | 94° |
| 2026-05-04 02:39 | 35.22059 | -92.12110 | 41014 ft | 562 kts | 94° |
| 2026-05-04 02:40 | 35.21227 | -92.02592 | 41016 ft | 563 kts | 94° |
| 2026-05-04 02:40 | 35.20386 | -91.93062 | 41023 ft | 563 kts | 94° |
| 2026-05-04 02:41 | 35.19539 | -91.83557 | 41033 ft | 562 kts | 94° |
| 2026-05-04 02:41 | 35.18689 | -91.74103 | 41037 ft | 561 kts | 94° |
| 2026-05-04 02:42 | 35.17827 | -91.64598 | 41037 ft | 561 kts | 94° |
| 2026-05-04 02:42 | 35.16959 | -91.55105 | 41037 ft | 561 kts | 94° |
| 2026-05-04 02:43 | 35.16090 | -91.45684 | 41049 ft | 561 kts | 94° |
| 2026-05-04 02:43 | 35.15208 | -91.36203 | 41056 ft | 560 kts | 94° |
| 2026-05-04 02:44 | 35.14318 | -91.26728 | 41046 ft | 560 kts | 94° |
| 2026-05-04 02:44 | 35.13428 | -91.17324 | 41049 ft | 560 kts | 94° |
| 2026-05-04 02:45 | 35.12524 | -91.07850 | 41052 ft | 560 kts | 95° |
| 2026-05-04 02:45 | 35.11614 | -90.98401 | 41040 ft | 559 kts | 95° |
| 2026-05-04 02:46 | 35.10698 | -90.88960 | 41048 ft | 559 kts | 95° |
| 2026-05-04 02:46 | 35.09779 | -90.79569 | 41049 ft | 559 kts | 95° |
| 2026-05-04 02:47 | 35.08848 | -90.70125 | 41042 ft | 559 kts | 95° |
| 2026-05-04 02:47 | 35.07911 | -90.60703 | 41042 ft | 558 kts | 95° |
| 2026-05-04 02:48 | 35.06968 | -90.51295 | 41059 ft | 558 kts | 95° |
| 2026-05-04 02:48 | 35.06016 | -90.41875 | 41042 ft | 558 kts | 95° |
| 2026-05-04 02:49 | 35.05059 | -90.32469 | 41045 ft | 558 kts | 95° |
| 2026-05-04 02:49 | 35.04094 | -90.23073 | 41045 ft | 558 kts | 95° |
| 2026-05-04 02:50 | 35.03123 | -90.13677 | 41047 ft | 558 kts | 95° |
| 2026-05-04 02:50 | 35.02147 | -90.04318 | 41049 ft | 558 kts | 95° |
| 2026-05-04 02:51 | 35.01142 | -89.94917 | 41063 ft | 558 kts | 97° |
| 2026-05-04 02:51 | 34.99857 | -89.85579 | 41073 ft | 558 kts | 98° |
| 2026-05-04 02:52 | 34.98472 | -89.76250 | 41084 ft | 558 kts | 98° |
| 2026-05-04 02:52 | 34.97116 | -89.66916 | 41072 ft | 558 kts | 98° |
| 2026-05-04 02:53 | 34.95792 | -89.57635 | 41074 ft | 558 kts | 98° |
| 2026-05-04 02:53 | 34.94464 | -89.48316 | 41078 ft | 558 kts | 98° |
| 2026-05-04 02:54 | 34.93126 | -89.38980 | 41083 ft | 559 kts | 98° |
| 2026-05-04 02:54 | 34.91780 | -89.29652 | 41092 ft | 559 kts | 98° |
| 2026-05-04 02:55 | 34.89746 | -89.15673 | 41080 ft | 558 kts | 98° |
| 2026-05-04 02:56 | 34.88382 | -89.06355 | 41086 ft | 558 kts | 98° |
| 2026-05-04 02:56 | 34.87018 | -88.97094 | 41089 ft | 558 kts | 98° |
| 2026-05-04 02:57 | 34.85639 | -88.87781 | 41092 ft | 558 kts | 99° |
| 2026-05-04 02:57 | 34.84254 | -88.78478 | 41098 ft | 557 kts | 99° |
| 2026-05-04 02:58 | 34.82866 | -88.69203 | 41099 ft | 557 kts | 99° |
| 2026-05-04 02:58 | 34.81471 | -88.59937 | 41100 ft | 557 kts | 99° |
| 2026-05-04 02:59 | 34.80077 | -88.50715 | 41099 ft | 557 kts | 99° |
| 2026-05-04 02:59 | 34.78668 | -88.41456 | 41098 ft | 556 kts | 99° |
| 2026-05-04 03:00 | 34.77254 | -88.32207 | 41093 ft | 556 kts | 99° |
| 2026-05-04 03:00 | 34.75834 | -88.22974 | 40962 ft | 555 kts | 99° |
| 2026-05-04 03:00 | 34.75120 | -88.18345 | 40791 ft | 555 kts | 99° |
| 2026-05-04 03:01 | 34.74407 | -88.13731 | 40563 ft | 556 kts | 99° |
| 2026-05-04 03:01 | 34.73687 | -88.09094 | 40342 ft | 555 kts | 99° |
| 2026-05-04 03:01 | 34.72968 | -88.04470 | 40169 ft | 554 kts | 99° |
| 2026-05-04 03:01 | 34.72249 | -87.99859 | 40003 ft | 554 kts | 99° |
| 2026-05-04 03:02 | 34.71530 | -87.95265 | 39792 ft | 554 kts | 99° |
| 2026-05-04 03:02 | 34.70816 | -87.90710 | 39557 ft | 554 kts | 99° |
| 2026-05-04 03:02 | 34.70092 | -87.86103 | 39327 ft | 554 kts | 99° |
| 2026-05-04 03:02 | 34.69369 | -87.81512 | 39128 ft | 553 kts | 99° |
| 2026-05-04 03:03 | 34.68642 | -87.76909 | 38897 ft | 553 kts | 99° |
| 2026-05-04 03:03 | 34.67916 | -87.72326 | 38644 ft | 553 kts | 99° |
| 2026-05-04 03:03 | 34.67186 | -87.67729 | 38429 ft | 552 kts | 99° |
| 2026-05-04 03:03 | 34.66467 | -87.63210 | 38248 ft | 551 kts | 99° |
| 2026-05-04 03:04 | 34.65735 | -87.58620 | 38063 ft | 552 kts | 99° |
| 2026-05-04 03:04 | 34.65002 | -87.54039 | 37848 ft | 552 kts | 99° |
| 2026-05-04 03:04 | 34.64266 | -87.49447 | 37647 ft | 552 kts | 99° |
| 2026-05-04 03:04 | 34.63531 | -87.44877 | 37419 ft | 552 kts | 99° |
| 2026-05-04 03:05 | 34.62799 | -87.40352 | 37229 ft | 552 kts | 99° |
| 2026-05-04 03:05 | 34.62002 | -87.35790 | 37027 ft | 553 kts | 100° |
| 2026-05-04 03:05 | 34.61157 | -87.31233 | 36862 ft | 553 kts | 101° |
| 2026-05-04 03:06 | 34.59440 | -87.22172 | 36737 ft | 551 kts | 101° |
| 2026-05-04 03:06 | 34.57737 | -87.13096 | 36550 ft | 552 kts | 101° |
| 2026-05-04 03:06 | 34.56893 | -87.08559 | 36447 ft | 552 kts | 100° |
| 2026-05-04 03:07 | 34.56096 | -87.04005 | 36344 ft | 551 kts | 99° |
| 2026-05-04 03:07 | 34.55321 | -86.99436 | 36241 ft | 552 kts | 99° |
| 2026-05-04 03:07 | 34.54526 | -86.94871 | 36106 ft | 552 kts | 101° |
| 2026-05-04 03:08 | 34.52343 | -86.85914 | 35991 ft | 552 kts | 105° |
| 2026-05-04 03:08 | 34.50032 | -86.77038 | 35804 ft | 552 kts | 105° |
| 2026-05-04 03:08 | 34.48888 | -86.72647 | 35657 ft | 552 kts | 105° |
| 2026-05-04 03:09 | 34.47728 | -86.68210 | 35485 ft | 552 kts | 105° |
| 2026-05-04 03:09 | 34.46564 | -86.63762 | 35257 ft | 552 kts | 105° |
| 2026-05-04 03:09 | 34.45398 | -86.59307 | 35009 ft | 553 kts | 105° |
| 2026-05-04 03:09 | 34.44234 | -86.54867 | 34800 ft | 553 kts | 105° |
| 2026-05-04 03:10 | 34.43068 | -86.50430 | 34592 ft | 552 kts | 105° |
| 2026-05-04 03:10 | 34.41900 | -86.45994 | 34376 ft | 551 kts | 105° |
| 2026-05-04 03:10 | 34.40737 | -86.41582 | 34253 ft | 551 kts | 105° |
| 2026-05-04 03:11 | 34.38417 | -86.32801 | 34031 ft | 551 kts | 105° |
| 2026-05-04 03:11 | 34.37247 | -86.28384 | 33897 ft | 551 kts | 105° |
| 2026-05-04 03:11 | 34.36075 | -86.23967 | 33770 ft | 552 kts | 105° |
| 2026-05-04 03:11 | 34.34899 | -86.19540 | 33635 ft | 552 kts | 105° |
| 2026-05-04 03:12 | 34.33722 | -86.15115 | 33527 ft | 551 kts | 106° |
| 2026-05-04 03:12 | 34.32562 | -86.10700 | 33399 ft | 552 kts | 105° |
| 2026-05-04 03:12 | 34.31421 | -86.06272 | 33270 ft | 552 kts | 105° |
| 2026-05-04 03:12 | 34.30272 | -86.01819 | 33141 ft | 552 kts | 105° |
| 2026-05-04 03:13 | 34.29126 | -85.97392 | 33133 ft | 553 kts | 105° |
| 2026-05-04 03:13 | 34.26816 | -85.88498 | 33135 ft | 553 kts | 105° |
| 2026-05-04 03:14 | 34.24512 | -85.79680 | 33136 ft | 553 kts | 105° |
| 2026-05-04 03:14 | 34.22191 | -85.70822 | 33139 ft | 553 kts | 105° |
| 2026-05-04 03:15 | 34.19862 | -85.61962 | 33138 ft | 553 kts | 105° |
| 2026-05-04 03:15 | 34.18699 | -85.57551 | 32808 ft | 545 kts | 105° |
| 2026-05-04 03:15 | 34.17549 | -85.53198 | 31906 ft | 544 kts | 106° |
| 2026-05-04 03:15 | 34.16408 | -85.48880 | 30977 ft | 545 kts | 106° |
| 2026-05-04 03:16 | 34.15252 | -85.44510 | 30016 ft | 545 kts | 106° |
| 2026-05-04 03:16 | 34.14095 | -85.40149 | 29061 ft | 544 kts | 106° |
| 2026-05-04 03:16 | 34.12970 | -85.35873 | 28286 ft | 539 kts | 106° |
| 2026-05-04 03:16 | 34.11860 | -85.31574 | 27573 ft | 533 kts | 106° |
| 2026-05-04 03:17 | 34.10766 | -85.27334 | 26913 ft | 526 kts | 106° |
| 2026-05-04 03:17 | 34.09678 | -85.23130 | 26228 ft | 521 kts | 106° |
| 2026-05-04 03:17 | 34.08599 | -85.18976 | 25566 ft | 515 kts | 106° |
| 2026-05-04 03:17 | 34.07533 | -85.14878 | 24955 ft | 510 kts | 106° |
| 2026-05-04 03:18 | 34.06474 | -85.10814 | 24333 ft | 504 kts | 107° |
| 2026-05-04 03:18 | 34.05273 | -85.06884 | 23601 ft | 493 kts | 115° |
| 2026-05-04 03:18 | 34.03401 | -85.03484 | 22739 ft | 482 kts | 133° |
| 2026-05-04 03:18 | 34.00978 | -85.00738 | 22089 ft | 475 kts | 141° |
| 2026-05-04 03:19 | 33.98456 | -84.98186 | 21454 ft | 469 kts | 141° |
| 2026-05-04 03:19 | 33.95966 | -84.95668 | 20839 ft | 463 kts | 141° |
| 2026-05-04 03:19 | 33.93553 | -84.93205 | 20227 ft | 458 kts | 140° |
| 2026-05-04 03:19 | 33.91139 | -84.90730 | 19576 ft | 453 kts | 140° |
| 2026-05-04 03:20 | 33.88740 | -84.88264 | 18946 ft | 449 kts | 140° |
| 2026-05-04 03:20 | 33.87168 | -84.86641 | 18532 ft | 446 kts | 140° |
| 2026-05-04 03:20 | 33.84059 | -84.83430 | 17543 ft | 441 kts | 140° |
| 2026-05-04 03:20 | 33.81740 | -84.81034 | 16814 ft | 438 kts | 140° |
| 2026-05-04 03:21 | 33.79439 | -84.78660 | 16136 ft | 433 kts | 139° |
| 2026-05-04 03:21 | 33.77925 | -84.77098 | 15714 ft | 429 kts | 139° |
| 2026-05-04 03:21 | 33.75731 | -84.74705 | 15074 ft | 424 kts | 133° |
| 2026-05-04 03:21 | 33.74070 | -84.71808 | 14419 ft | 418 kts | 114° |
| 2026-05-04 03:22 | 33.73295 | -84.68500 | 13782 ft | 410 kts | 94° |
| 2026-05-04 03:22 | 33.73195 | -84.65105 | 13111 ft | 403 kts | 88° |
| 2026-05-04 03:22 | 33.73227 | -84.61763 | 12488 ft | 397 kts | 88° |
| 2026-05-04 03:22 | 33.73259 | -84.58465 | 11867 ft | 391 kts | 88° |
| 2026-05-04 03:23 | 33.73281 | -84.55224 | 11250 ft | 386 kts | 88° |
| 2026-05-04 03:23 | 33.73290 | -84.52077 | 10902 ft | 374 kts | 88° |
| 2026-05-04 03:23 | 33.73292 | -84.49001 | 10651 ft | 360 kts | 88° |
| 2026-05-04 03:23 | 33.73292 | -84.46040 | 10418 ft | 347 kts | 88° |
| 2026-05-04 03:24 | 33.73291 | -84.43203 | 10232 ft | 332 kts | 88° |
| 2026-05-04 03:24 | 33.73295 | -84.40485 | 10106 ft | 317 kts | 88° |
| 2026-05-04 03:24 | 33.73295 | -84.37894 | 10006 ft | 303 kts | 88° |
| 2026-05-04 03:24 | 33.73294 | -84.35388 | 9696 ft | 297 kts | 88° |
| 2026-05-04 03:25 | 33.73294 | -84.32919 | 9308 ft | 294 kts | 88° |
| 2026-05-04 03:25 | 33.73294 | -84.30461 | 8921 ft | 293 kts | 88° |
| 2026-05-04 03:25 | 33.73292 | -84.28026 | 8534 ft | 291 kts | 88° |
| 2026-05-04 03:25 | 33.73295 | -84.25633 | 8169 ft | 289 kts | 88° |
| 2026-05-04 03:26 | 33.73305 | -84.23219 | 7796 ft | 288 kts | 88° |
| 2026-05-04 03:26 | 33.73321 | -84.20817 | 7427 ft | 286 kts | 88° |
| 2026-05-04 03:26 | 33.73343 | -84.18438 | 7067 ft | 284 kts | 88° |
| 2026-05-04 03:26 | 33.73371 | -84.16071 | 6717 ft | 283 kts | 88° |
| 2026-05-04 03:27 | 33.73274 | -84.13736 | 6435 ft | 281 kts | 104° |
| 2026-05-04 03:27 | 33.72440 | -84.11733 | 6249 ft | 280 kts | 130° |
| 2026-05-04 03:27 | 33.70918 | -84.10337 | 6104 ft | 270 kts | 158° |
| 2026-05-04 03:27 | 33.69168 | -84.09897 | 5981 ft | 254 kts | 182° |
| 2026-05-04 03:28 | 33.67487 | -84.10330 | 5765 ft | 244 kts | 205° |
| 2026-05-04 03:28 | 33.66061 | -84.11363 | 5518 ft | 236 kts | 222° |
| 2026-05-04 03:28 | 33.65166 | -84.12941 | 5330 ft | 226 kts | 253° |
| 2026-05-04 03:28 | 33.64957 | -84.14762 | 5173 ft | 217 kts | 267° |
| 2026-05-04 03:29 | 33.64955 | -84.16547 | 4975 ft | 210 kts | 270° |
| 2026-05-04 03:29 | 33.64984 | -84.18255 | 4880 ft | 197 kts | 270° |
| 2026-05-04 03:29 | 33.64995 | -84.19840 | 4778 ft | 184 kts | 269° |
| 2026-05-04 03:29 | 33.64995 | -84.21344 | 4589 ft | 176 kts | 269° |
| 2026-05-04 03:30 | 33.64985 | -84.22770 | 4353 ft | 171 kts | 269° |
| 2026-05-04 03:30 | 33.64978 | -84.24196 | 4048 ft | 170 kts | 269° |
| 2026-05-04 03:30 | 33.64970 | -84.25604 | 3775 ft | 168 kts | 269° |
| 2026-05-04 03:30 | 33.64964 | -84.26995 | 3499 ft | 165 kts | 269° |
| 2026-05-04 03:31 | 33.64961 | -84.28368 | 3230 ft | 163 kts | 270° |
| 2026-05-04 03:31 | 33.64955 | -84.29712 | 2960 ft | 158 kts | 270° |
| 2026-05-04 03:31 | 33.64948 | -84.31006 | 2712 ft | 152 kts | 270° |
| 2026-05-04 03:31 | 33.64945 | -84.32256 | 2459 ft | 146 kts | 271° |
| 2026-05-04 03:32 | 33.64948 | -84.33451 | 2242 ft | 139 kts | 271° |
| 2026-05-04 03:32 | 33.64957 | -84.34591 | 2099 ft | 136 kts | 271° |
| 2026-05-04 03:32 | 33.64959 | -84.35733 | 1925 ft | 138 kts | 271° |
| 2026-05-04 03:32 | 33.64960 | -84.36880 | 1728 ft | 137 kts | 271° |
| 2026-05-04 03:33 | 33.64952 | -84.38012 | 1522 ft | 137 kts | 270° |
| 2026-05-04 03:33 | 33.64952 | -84.39162 | 1345 ft | 138 kts | 271° |
| 2026-05-04 03:33 | 33.64955 | -84.40316 | 1176 ft | 138 kts | 270° |
| 2026-05-04 03:33 | 33.64954 | -84.41469 | 1052 ft | 136 kts | 270° |
| 2026-05-04 03:34 | 33.64953 | -84.42508 | 1042 ft | 105 kts | 270° |
| 2026-05-04 03:34 | 33.64949 | -84.43053 | 1041 ft | 40 kts | 264° |
| 2026-05-04 03:34 | 33.64880 | -84.43292 | 1042 ft | 10 kts | 237° |
| 2026-05-04 03:34 | 33.64833 | -84.43315 | 1042 ft | 7 kts | 168° |
| 2026-05-04 03:35 | 33.64796 | -84.43272 | 1042 ft | 8 kts | 111° |
| 2026-05-04 03:35 | 33.64787 | -84.43193 | 1042 ft | 11 kts | 92° |
| 2026-05-04 03:35 | 33.64789 | -84.43092 | 1042 ft | 15 kts | 89° |
| 2026-05-04 03:35 | 33.64790 | -84.42951 | 1042 ft | 18 kts | 92° |
| 2026-05-04 03:36 | 33.64719 | -84.42876 | 1043 ft | 14 kts | 173° |
| 2026-05-04 03:36 | 33.64618 | -84.42841 | 1042 ft | 17 kts | 154° |
| 2026-05-04 03:36 | 33.64502 | -84.42774 | 1042 ft | 20 kts | 155° |
| 2026-05-04 03:36 | 33.64376 | -84.42736 | 1042 ft | 19 kts | 179° |
| 2026-05-04 03:37 | 33.64262 | -84.42737 | 1042 ft | 11 kts | 180° |
| 2026-05-04 03:37 | 33.64196 | -84.42722 | 1042 ft | 8 kts | 138° |
| 2026-05-04 03:37 | 33.64189 | -84.42663 | 1042 ft | 4 kts | 90° |
| 2026-05-04 03:37 | 33.64189 | -84.42637 | 1042 ft | 1 kts | 90° |
| 2026-05-04 03:38 | 33.64189 | -84.42635 | 1042 ft | 0 kts | 90° |